Time;durP1;ratioP1;P1;durP2;ratioP2;P2;SDS_P1;SDS_P2;PMS_P1;PMS_P2;Temp;Humidity;BMP_temperature;BMP_pressure;BME280_temperature;BME280_humidity;BME280_pressure;Samples;Min_cycle;Max_cycle;Signal;HPM_P1;HPM_P2
2023/01/24 00:01:45;;;;;;;22.73;13.23;;;;;;;2.13;100.00;103726.28;5072881;28;20127;-62
2023/01/24 00:04:15;;;;;;;22.35;14.00;;;;;;;2.15;100.00;103733.22;5075828;28;20368;-62
2023/01/24 00:06:43;;;;;;;23.00;13.82;;;;;;;2.20;100.00;103741.09;5075819;28;20518;-62
2023/01/24 00:09:11;;;;;;;20.60;12.80;;;;;;;2.16;100.00;103737.56;5075521;28;20098;-62
2023/01/24 00:11:39;;;;;;;22.65;13.40;;;;;;;2.12;100.00;103740.09;5075724;28;20045;-62
2023/01/24 00:14:07;;;;;;;22.35;12.80;;;;;;;2.11;100.00;103728.81;5075693;28;20049;-62
2023/01/24 00:16:35;;;;;;;19.98;12.35;;;;;;;2.25;100.00;103733.38;5075992;28;20052;-62
2023/01/24 00:19:03;;;;;;;19.15;12.02;;;;;;;2.21;100.00;103729.88;5075526;28;20545;-62
2023/01/24 00:21:35;;;;;;;21.08;12.93;;;;;;;2.19;100.00;103737.63;5075517;28;20067;-62
2023/01/24 00:24:04;;;;;;;21.55;12.48;;;;;;;2.19;100.00;103726.38;5074842;28;20949;-62
2023/01/24 00:26:32;;;;;;;21.42;11.50;;;;;;;2.18;100.00;103716.81;5072482;28;20050;-62
2023/01/24 00:29:00;;;;;;;18.35;10.82;;;;;;;2.19;100.00;103713.38;5073596;28;20064;-62
2023/01/24 00:31:28;;;;;;;18.33;11.05;;;;;;;2.09;100.00;103722.75;5073893;28;20131;-62
2023/01/24 00:33:56;;;;;;;17.25;10.65;;;;;;;2.12;100.00;103709.81;5075202;28;20051;-62
2023/01/24 00:36:25;;;;;;;15.05;8.30;;;;;;;2.16;100.00;103711.59;5075293;28;20040;-62
2023/01/24 00:38:55;;;;;;;17.10;9.90;;;;;;;2.06;100.00;103714.03;5074814;28;20041;-62
2023/01/24 00:41:23;;;;;;;18.42;10.23;;;;;;;2.14;100.00;103713.31;5071372;28;20052;-62
2023/01/24 00:43:52;;;;;;;17.45;10.23;;;;;;;2.13;100.00;103700.31;5073580;28;20044;-62
2023/01/24 00:46:20;;;;;;;16.98;10.10;;;;;;;2.13;100.00;103701.19;5074788;28;20048;-62
2023/01/24 00:48:48;;;;;;;16.75;9.85;;;;;;;2.13;100.00;103700.31;5074919;28;20058;-63
2023/01/24 00:51:16;;;;;;;18.08;10.13;;;;;;;2.07;100.00;103695.88;5072772;28;20495;-62
2023/01/24 00:53:44;;;;;;;16.92;9.85;;;;;;;2.10;100.00;103698.53;5072179;28;20040;-61
2023/01/24 00:56:14;;;;;;;16.58;9.88;;;;;;;2.12;100.00;103695.97;5073051;28;20057;-62
2023/01/24 00:58:42;;;;;;;17.48;10.20;;;;;;;2.17;100.00;103692.59;5074771;28;20044;-62
2023/01/24 01:01:10;;;;;;;17.02;9.98;;;;;;;2.12;100.00;103694.22;5074840;28;20098;-62
2023/01/24 01:03:38;;;;;;;17.15;9.88;;;;;;;2.07;100.00;103690.69;5072935;28;20551;-62
2023/01/24 01:06:09;;;;;;;16.85;9.63;;;;;;;2.05;100.00;103684.59;5070411;28;20086;-62
2023/01/24 01:08:37;;;;;;;16.92;9.93;;;;;;;2.11;100.00;103692.47;5073020;28;20068;-62
2023/01/24 01:11:06;;;;;;;17.75;9.57;;;;;;;2.06;100.00;103681.16;5074509;28;20042;-62
2023/01/24 01:13:35;;;;;;;17.77;10.05;;;;;;;2.07;100.00;103692.41;5073859;28;20415;-62
2023/01/24 01:16:05;;;;;;;20.00;10.55;;;;;;;2.11;100.00;103697.66;5074525;28;20044;-62
2023/01/24 01:18:35;;;;;;;17.77;10.18;;;;;;;2.14;100.00;103692.53;5074427;28;20119;-62
2023/01/24 01:21:03;;;;;;;18.95;10.95;;;;;;;2.06;100.00;103703.63;5074666;28;20414;-62
2023/01/24 01:23:32;;;;;;;17.67;10.20;;;;;;;2.05;100.00;103700.19;5074714;28;20057;-61
2023/01/24 01:26:01;;;;;;;17.40;9.82;;;;;;;2.03;100.00;103694.97;5074181;28;20139;-61
2023/01/24 01:28:32;;;;;;;18.80;10.50;;;;;;;1.97;100.00;103704.38;5071306;28;20064;-62
2023/01/24 01:31:02;;;;;;;19.00;10.43;;;;;;;2.02;100.00;103692.34;5071044;28;20503;-62
2023/01/24 01:33:33;;;;;;;18.55;10.18;;;;;;;2.03;100.00;103701.88;5074217;28;20056;-62
2023/01/24 01:36:02;;;;;;;20.48;11.25;;;;;;;1.97;100.00;103699.19;5072721;28;20048;-62
2023/01/24 01:38:30;;;;;;;19.30;10.27;;;;;;;1.95;100.00;103700.88;5071171;28;20458;-62
2023/01/24 01:40:58;;;;;;;19.50;11.60;;;;;;;1.91;100.00;103691.28;5070516;28;20074;-62
2023/01/24 01:43:30;;;;;;;20.25;11.18;;;;;;;1.90;100.00;103700.78;5074007;28;20044;-62
2023/01/24 01:46:08;;;;;;;20.02;11.20;;;;;;;1.93;100.00;103699.97;5071986;28;20072;-62
2023/01/24 01:48:40;;;;;;;17.25;10.30;;;;;;;1.91;100.00;103699.97;5070282;28;20044;-63
2023/01/24 01:51:15;;;;;;;19.65;10.57;;;;;;;1.95;100.00;103706.94;5072960;28;20048;-62
2023/01/24 01:53:48;;;;;;;19.42;11.13;;;;;;;1.99;100.00;103703.56;5072034;28;20048;-62
2023/01/24 01:56:31;;;;;;;19.70;10.63;;;;;;;2.00;100.00;103696.63;5069783;28;20057;-62
2023/01/24 01:59:05;;;;;;;19.60;11.52;;;;;;;1.95;100.00;103700.88;5072411;28;20058;-62
2023/01/24 02:01:35;;;;;;;19.02;11.77;;;;;;;1.89;100.00;103699.03;5073491;28;20422;-63
2023/01/24 02:04:08;;;;;;;19.65;10.98;;;;;;;1.89;100.00;103701.63;5073566;28;20109;-62
2023/01/24 02:06:53;;;;;;;18.60;11.05;;;;;;;1.90;100.00;103700.78;5073392;28;20099;-63
2023/01/24 02:09:24;;;;;;;20.40;11.05;;;;;;;1.87;100.00;103700.75;5071044;28;20631;-62
2023/01/24 02:11:56;;;;;;;19.02;11.35;;;;;;;1.91;100.00;103699.97;5069803;28;20053;-62
2023/01/24 02:17:13;;;;;;;20.83;11.60;;;;;;;1.88;100.00;103691.22;5071577;28;20376;-62
2023/01/24 02:19:57;;;;;;;21.80;12.18;;;;;;;1.88;100.00;103692.09;5069506;28;20052;-62
2023/01/24 02:22:32;;;;;;;17.63;10.20;;;;;;;1.89;100.00;103698.19;5072347;28;20392;-62
2023/01/24 02:25:09;;;;;;;18.75;11.40;;;;;;;1.82;100.00;103692.88;5073309;28;20048;-62
2023/01/24 02:27:38;;;;;;;20.08;11.02;;;;;;;1.89;100.00;103690.41;5072846;28;20055;-62
2023/01/24 02:30:08;;;;;;;22.55;12.40;;;;;;;1.82;100.00;103692.88;5073118;28;20491;-62
2023/01/24 02:32:36;;;;;;;22.98;13.23;;;;;;;1.83;100.00;103685.97;5072756;28;20052;-62
2023/01/24 02:35:05;;;;;;;20.05;11.48;;;;;;;1.81;100.00;103685.97;5072891;28;20095;-62
2023/01/24 02:37:37;;;;;;;21.35;11.82;;;;;;;1.75;100.00;103692.75;5073256;28;20548;-62
2023/01/24 02:40:11;;;;;;;19.95;12.38;;;;;;;1.83;100.00;103693.75;5070985;28;20131;-62
2023/01/24 02:42:40;;;;;;;19.42;11.75;;;;;;;1.81;100.00;103692.84;5069598;28;20059;-62
2023/01/24 02:45:14;;;;;;;22.20;13.05;;;;;;;1.79;100.00;103689.38;5069793;28;20068;-62
2023/01/24 02:47:47;;;;;;;21.63;11.80;;;;;;;1.83;100.00;103692.03;5072848;28;20129;-62
2023/01/24 02:50:15;;;;;;;21.02;12.63;;;;;;;1.75;100.00;103691.03;5071564;28;20064;-62
2023/01/24 02:55:29;;;;;;;21.77;12.25;;;;;;;1.72;100.00;103683.19;5071632;28;20072;-63
2023/01/24 02:58:07;;;;;;;20.42;12.63;;;;;;;1.74;100.00;103691.88;5072402;28;20548;-62
2023/01/24 03:00:36;;;;;;;22.08;12.82;;;;;;;1.69;100.00;103684.00;5072695;28;20376;-62
2023/01/24 03:03:05;;;;;;;21.42;13.00;;;;;;;1.70;100.00;103687.47;5070416;28;20923;-62
2023/01/24 03:05:56;;;;;;;23.90;13.30;;;;;;;1.63;100.00;103680.44;5068626;28;20450;-62
2023/01/24 03:08:25;;;;;;;22.48;13.15;;;;;;;1.68;100.00;103686.59;5071641;28;20059;-62
2023/01/24 03:10:54;;;;;;;24.20;13.60;;;;;;;1.75;100.00;103683.25;5072737;28;20515;-62
2023/01/24 03:35:36;;;;;;;21.75;13.68;;;;;;;1.60;100.00;103682.97;5071953;28;20070;-61
2023/01/24 03:40:52;;;;;;;25.20;14.32;;;;;;;1.59;100.00;103687.28;5072228;28;20052;-61
2023/01/24 03:43:20;;;;;;;23.73;13.52;;;;;;;1.56;100.00;103681.19;5069330;28;20052;-61
2023/01/24 03:45:53;;;;;;;24.95;14.35;;;;;;;1.54;100.00;103683.75;5067960;28;20068;-62
2023/01/24 03:48:26;;;;;;;23.50;14.93;;;;;;;1.52;100.00;103682.84;5071592;28;20052;-61
2023/01/24 03:53:39;;;;;;;21.77;13.25;;;;;;;1.56;100.00;103681.19;5072230;28;20080;-62
2023/01/24 03:56:07;;;;;;;23.08;15.15;;;;;;;1.54;100.00;103682.84;5068144;28;20049;-61
2023/01/24 03:58:36;;;;;;;23.23;14.73;;;;;;;1.50;100.00;103680.22;5068955;28;20048;-62
2023/01/24 04:01:05;;;;;;;25.23;15.82;;;;;;;1.52;100.00;103682.84;5069387;28;20098;-61
2023/01/24 04:03:33;;;;;;;22.83;14.35;;;;;;;1.43;100.00;103685.25;5067863;28;20360;-61
2023/01/24 04:06:02;;;;;;;23.48;14.98;;;;;;;1.50;100.00;103687.09;5069568;28;20491;-61
2023/01/24 04:08:30;;;;;;;25.02;14.63;;;;;;;1.46;100.00;103693.09;5068608;28;20067;-61
2023/01/24 04:10:58;;;;;;;26.77;15.45;;;;;;;1.47;100.00;103690.53;5068121;28;20049;-61
2023/01/24 04:13:27;;;;;;;23.17;14.65;;;;;;;1.47;100.00;103687.06;5071616;28;20049;-62
2023/01/24 04:15:55;;;;;;;24.75;15.18;;;;;;;1.42;100.00;103687.00;5071333;28;20086;-61
2023/01/24 04:18:24;;;;;;;24.10;14.85;;;;;;;1.47;100.00;103700.91;5067302;28;20040;-61
2023/01/24 04:20:52;;;;;;;25.27;15.48;;;;;;;1.52;100.00;103699.25;5067467;28;20052;-61
2023/01/24 04:23:20;;;;;;;23.40;14.40;;;;;;;1.54;100.00;103694.13;5070203;28;20049;-62
2023/01/24 04:25:54;;;;;;;23.27;14.57;;;;;;;1.52;100.00;103701.84;5071205;28;20102;-61
2023/01/24 04:28:23;;;;;;;23.38;14.40;;;;;;;1.47;100.00;103702.63;5071470;28;20053;-61
2023/01/24 04:30:57;;;;;;;25.25;15.38;;;;;;;1.50;100.00;103702.66;5069722;28;20055;-61
2023/01/24 04:33:28;;;;;;;26.35;14.98;;;;;;;1.45;100.00;103706.91;5067008;28;20045;-62
2023/01/24 04:35:59;;;;;;;25.08;14.75;;;;;;;1.42;100.00;103699.97;5070410;28;20102;-62
2023/01/24 04:38:27;;;;;;;26.85;15.23;;;;;;;1.41;100.00;103707.72;5071529;28;20036;-62
2023/01/24 04:41:00;;;;;;;26.33;15.07;;;;;;;1.41;100.00;103703.38;5071553;28;20110;-61
2023/01/24 04:43:28;;;;;;;25.17;14.98;;;;;;;1.37;100.00;103700.72;5071275;28;20045;-62
2023/01/24 04:45:57;;;;;;;26.40;15.07;;;;;;;1.34;100.00;103694.59;5071611;28;20113;-62
2023/01/24 04:48:27;;;;;;;27.02;16.05;;;;;;;1.30;100.00;103699.72;5071739;28;20119;-61
2023/01/24 04:50:59;;;;;;;25.55;16.20;;;;;;;1.31;100.00;103699.75;5073761;28;20056;-62
2023/01/24 04:53:28;;;;;;;26.48;15.65;;;;;;;1.29;100.00;103703.16;5074905;28;20298;-62
2023/01/24 04:56:00;;;;;;;26.08;16.05;;;;;;;1.29;100.00;103691.03;5074781;28;20158;-62
2023/01/24 04:58:29;;;;;;;26.00;15.85;;;;;;;1.27;100.00;103697.03;5074871;28;20052;-62
2023/01/24 05:00:57;;;;;;;28.65;16.05;;;;;;;1.29;100.00;103698.81;5071088;28;20417;-62
2023/01/24 05:03:28;;;;;;;25.48;15.07;;;;;;;1.35;100.00;103703.28;5071204;28;20442;-62
2023/01/24 05:05:56;;;;;;;29.00;16.70;;;;;;;1.31;100.00;103697.16;5074950;28;20484;-62
2023/01/24 05:08:26;;;;;;;27.88;17.10;;;;;;;1.25;100.00;103693.56;5074645;28;20752;-62
2023/01/24 05:10:54;;;;;;;25.75;15.45;;;;;;;1.24;100.00;103700.47;5074635;28;20044;-62
2023/01/24 05:13:22;;;;;;;28.73;16.80;;;;;;;1.24;100.00;103704.78;5074492;28;20428;-62
2023/01/24 05:15:52;;;;;;;25.30;15.50;;;;;;;1.24;100.00;103707.38;5074335;28;20541;-62
2023/01/24 05:18:20;;;;;;;27.77;16.00;;;;;;;1.21;100.00;103712.50;5069653;28;20152;-62
2023/01/24 05:20:49;;;;;;;27.30;16.65;;;;;;;1.20;100.00;103709.03;5072108;28;20443;-62
2023/01/24 05:23:18;;;;;;;26.02;15.25;;;;;;;1.22;100.00;103711.66;5074348;28;20072;-62
2023/01/24 05:25:46;;;;;;;26.98;16.85;;;;;;;1.21;100.00;103715.97;5071517;28;20059;-62
2023/01/24 05:28:14;;;;;;;26.42;16.48;;;;;;;1.17;100.00;103709.84;5070452;28;20114;-62
2023/01/24 05:30:42;;;;;;;26.98;16.23;;;;;;;1.27;100.00;103712.59;5074285;28;20048;-62
2023/01/24 05:33:10;;;;;;;28.13;16.13;;;;;;;1.17;100.00;103712.44;5072696;28;20036;-62
2023/01/24 05:35:40;;;;;;;27.88;18.20;;;;;;;1.17;100.00;103717.63;5074303;28;20131;-62
2023/01/24 05:38:09;;;;;;;25.98;16.48;;;;;;;1.22;100.00;103719.44;5071561;28;20056;-62
2023/01/24 05:40:40;;;;;;;;;;;;;;;1.18;100.00;103719.34;5070527;28;20093;-62
2023/01/24 05:43:08;;;;;;;28.42;17.17;;;;;;;1.21;100.00;103712.50;5073658;28;19928;-62
2023/01/24 05:45:36;;;;;;;27.05;16.42;;;;;;;1.19;100.00;103709.88;5074159;28;20068;-62
2023/01/24 05:48:05;;;;;;;27.42;16.77;;;;;;;1.22;100.00;103728.09;5073945;28;20050;-62
2023/01/24 05:50:33;;;;;;;26.80;16.50;;;;;;;1.22;100.00;103727.22;5073910;28;20048;-62
2023/01/24 05:53:02;;;;;;;27.15;17.08;;;;;;;1.17;100.00;103729.69;5072375;28;20049;-62
2023/01/24 05:55:31;;;;;;;29.35;17.52;;;;;;;1.23;100.00;103726.34;5073837;28;20044;-62
2023/01/24 05:58:00;;;;;;;27.55;16.38;;;;;;;1.24;100.00;103730.69;5073800;28;20132;-62
2023/01/24 06:00:28;;;;;;;26.02;16.58;;;;;;;1.24;100.00;103738.47;5073129;28;20056;-62
2023/01/24 06:03:02;;;;;;;27.65;15.52;;;;;;;1.18;100.00;103737.50;5070538;28;20080;-62
2023/01/24 06:05:31;;;;;;;26.55;16.02;;;;;;;1.21;100.00;103725.47;5069346;28;20098;-62
2023/01/24 06:07:59;;;;;;;27.85;17.30;;;;;;;1.18;100.00;103732.31;5073498;28;20094;-62
2023/01/24 06:10:27;;;;;;;28.17;16.67;;;;;;;1.15;100.00;103737.44;5073726;28;20499;-62
2023/01/24 06:12:56;;;;;;;29.48;17.48;;;;;;;1.22;100.00;103740.19;5073301;28;20044;-62
2023/01/24 06:15:25;;;;;;;28.98;17.15;;;;;;;1.20;100.00;103734.97;5073398;28;20048;-62
2023/01/24 06:17:53;;;;;;;27.83;17.42;;;;;;;1.18;100.00;103736.66;5073240;28;20068;-62
2023/01/24 06:20:21;;;;;;;27.85;16.13;;;;;;;1.25;100.00;103732.47;5068520;28;20564;-62
2023/01/24 06:22:53;;;;;;;28.45;17.60;;;;;;;1.18;100.00;103732.31;5071038;28;20037;-63
2023/01/24 06:25:24;;;;;;;29.15;18.05;;;;;;;1.18;100.00;103737.50;5073134;28;20040;-62
2023/01/24 06:27:53;;;;;;;28.92;16.75;;;;;;;1.16;100.00;103738.34;5072968;28;20060;-62
2023/01/24 06:30:24;;;;;;;29.23;17.42;;;;;;;1.16;100.00;103746.13;5072986;28;20118;-62
2023/01/24 06:33:16;;;;;;;29.02;16.58;;;;;;;1.22;100.00;103750.56;5068608;28;20037;-63
2023/01/24 06:35:59;;;;;;;27.57;15.73;;;;;;;1.17;100.00;103746.16;5067142;28;20106;-62
2023/01/24 06:38:27;;;;;;;25.58;15.80;;;;;;;1.21;100.00;103746.22;5073046;28;20083;-62
2023/01/24 06:40:58;;;;;;;27.10;16.77;;;;;;;1.20;100.00;103747.94;5072973;28;20091;-62
2023/01/24 06:43:26;;;;;;;29.20;17.05;;;;;;;1.14;100.00;103747.78;5068958;28;20040;-62
2023/01/24 06:45:56;;;;;;;27.25;16.17;;;;;;;1.16;100.00;103754.75;5069335;28;20588;-62
2023/01/24 06:48:24;;;;;;;27.35;16.40;;;;;;;1.16;100.00;103748.72;5072226;28;20491;-62
2023/01/24 06:50:52;;;;;;;28.98;16.75;;;;;;;1.13;100.00;103749.53;5072625;28;20086;-62
2023/01/24 06:53:20;;;;;;;26.88;15.75;;;;;;;1.15;100.00;103753.00;5072644;28;20044;-62
2023/01/24 06:55:49;;;;;;;30.95;17.85;;;;;;;1.11;100.00;103746.00;5072785;28;20045;-62
2023/01/24 06:58:19;;;;;;;26.38;16.27;;;;;;;1.15;100.00;103752.16;5072603;28;20079;-62
2023/01/24 07:00:47;;;;;;;31.30;18.80;;;;;;;1.12;100.00;103757.28;5072655;28;20106;-62
2023/01/24 07:03:17;;;;;;;29.50;17.38;;;;;;;1.11;100.00;103752.94;5072572;28;20048;-62
2023/01/24 07:05:48;;;;;;;26.98;15.70;;;;;;;1.13;100.00;103761.59;5072422;28;20373;-62
2023/01/24 07:08:17;;;;;;;28.75;17.38;;;;;;;1.07;100.00;103762.34;5072419;28;20048;-62
2023/01/24 07:10:48;;;;;;;29.48;16.95;;;;;;;1.10;100.00;103766.72;5072137;28;20484;-62
2023/01/24 07:13:17;;;;;;;28.17;16.70;;;;;;;1.13;100.00;103764.19;5072228;28;20049;-62
2023/01/24 07:15:45;;;;;;;30.00;17.83;;;;;;;1.13;100.00;103772.84;5072340;28;20491;-62
2023/01/24 07:18:15;;;;;;;25.75;15.55;;;;;;;1.12;100.00;103770.25;5072066;28;20098;-62
2023/01/24 07:20:45;;;;;;;28.63;17.05;;;;;;;1.09;100.00;103773.63;5071607;28;20059;-62
2023/01/24 07:23:21;;;;;;;30.13;17.98;;;;;;;1.02;100.00;103771.72;5068613;28;20132;-63
2023/01/24 07:25:50;;;;;;;28.52;16.55;;;;;;;1.02;100.00;103782.09;5070510;28;20033;-62
2023/01/24 07:28:19;;;;;;;29.50;17.77;;;;;;;0.97;100.00;103789.78;5071955;28;20070;-62
2023/01/24 07:30:47;;;;;;;28.92;17.35;;;;;;;0.97;100.00;103794.09;5072119;28;20123;-62
2023/01/24 07:33:16;;;;;;;27.55;16.48;;;;;;;0.98;100.00;103785.47;5072044;28;20087;-63
2023/01/24 07:35:46;;;;;;;27.50;16.05;;;;;;;1.01;100.00;103788.16;5072214;28;20047;-48
2023/01/24 07:38:14;;;;;;;28.67;16.55;;;;;;;1.02;100.00;103795.06;5070764;28;20136;-52
2023/01/24 07:40:42;;;;;;;30.05;16.73;;;;;;;1.00;100.00;103797.63;5067683;28;20052;-50
2023/01/24 07:43:11;;;;;;;31.55;18.17;;;;;;;1.00;100.00;103794.16;5069315;28;20087;-49
2023/01/24 07:45:41;;;;;;;28.90;17.52;;;;;;;0.97;100.00;103794.97;5072109;28;20399;-50
2023/01/24 07:48:09;;;;;;;31.30;17.23;;;;;;;0.98;100.00;103796.72;5071027;28;20432;-50
2023/01/24 07:50:38;;;;;;;30.05;17.65;;;;;;;0.97;100.00;103794.09;5068110;28;20052;-49
2023/01/24 07:53:07;;;;;;;29.17;16.88;;;;;;;0.98;100.00;103796.72;5070500;28;20068;-48
2023/01/24 07:55:35;;;;;;;30.05;17.42;;;;;;;1.04;100.00;103788.22;5071868;28;20048;-49
2023/01/24 07:58:04;;;;;;;31.50;18.58;;;;;;;1.02;100.00;103792.47;5071725;28;20053;-50
2023/01/24 08:00:32;;;;;;;30.27;17.63;;;;;;;1.01;100.00;103801.09;5067990;28;20051;-50
2023/01/24 08:03:00;;;;;;;30.90;18.30;;;;;;;0.94;100.00;103802.69;5067906;28;20049;-47
2023/01/24 08:05:28;;;;;;;29.13;17.00;;;;;;;0.98;100.00;103803.59;5071408;28;20072;-52
2023/01/24 08:07:56;;;;;;;28.38;16.85;;;;;;;1.04;100.00;103808.94;5071910;28;20117;-49
2023/01/24 08:10:26;;;;;;;29.80;18.17;;;;;;;1.04;100.00;103800.28;5068790;28;20063;-50
2023/01/24 08:12:54;;;;;;;33.53;19.58;;;;;;;1.06;100.00;103804.66;5068722;28;20068;-52
2023/01/24 08:15:25;;;;;;;30.88;18.02;;;;;;;1.08;100.00;103813.34;5071702;28;20102;-49
2023/01/24 08:17:53;;;;;;;30.50;17.77;;;;;;;1.09;100.00;103815.13;5071687;28;20079;-48
2023/01/24 08:20:21;;;;;;;28.55;17.95;;;;;;;1.18;100.00;103812.69;5071579;28;20056;-51
2023/01/24 08:22:54;;;;;;;31.45;18.95;;;;;;;1.11;100.00;103810.81;5072659;28;20048;-51
2023/01/24 08:25:28;;;;;;;31.95;18.55;;;;;;;1.07;100.00;103813.31;5071753;28;20048;-52
2023/01/24 08:27:56;;;;;;;29.70;17.23;;;;;;;1.08;100.00;103817.66;5072378;28;20388;-52
2023/01/24 08:30:24;;;;;;;31.95;17.23;;;;;;;1.14;100.00;103821.25;5075235;28;20060;-52
2023/01/24 08:33:02;;;;;;;30.92;17.50;;;;;;;1.17;100.00;103817.84;5075510;28;20040;-52
2023/01/24 08:35:31;;;;;;;27.95;17.35;;;;;;;1.11;100.00;103823.78;5071406;28;20044;-52
2023/01/24 08:38:00;;;;;;;29.58;17.80;;;;;;;1.13;100.00;103822.13;5072548;28;20056;-50
2023/01/24 08:40:30;;;;;;;28.00;17.70;;;;;;;1.06;100.00;103827.97;5074755;28;20355;-48
2023/01/24 08:43:11;;;;;;;29.63;17.52;;;;;;;1.11;100.00;103826.38;5074922;28;20056;-50
2023/01/24 08:45:39;;;;;;;28.50;16.83;;;;;;;1.10;100.00;103837.59;5075081;28;20041;-47
2023/01/24 08:48:07;;;;;;;29.75;17.55;;;;;;;1.17;100.00;103829.13;5074991;28;20060;-50
2023/01/24 08:50:35;;;;;;;32.03;17.73;;;;;;;1.17;100.00;103830.81;5073817;28;20080;-50
2023/01/24 08:53:04;;;;;;;32.03;17.60;;;;;;;1.10;100.00;103834.13;5071570;28;20139;-50
2023/01/24 08:55:33;;;;;;;28.55;17.30;;;;;;;1.22;100.00;103830.94;5073576;28;20072;-49
2023/01/24 08:58:02;;;;;;;27.40;16.60;;;;;;;1.24;100.00;103832.72;5074926;28;20056;-49
2023/01/24 09:00:30;;;;;;;28.92;17.02;;;;;;;1.25;100.00;103837.03;5074944;28;20040;-49
2023/01/24 09:03:00;;;;;;;30.63;18.00;;;;;;;1.24;100.00;103837.91;5074754;28;20094;-47
2023/01/24 09:05:29;;;;;;;27.85;16.90;;;;;;;1.24;100.00;103839.59;5074722;28;20131;-51
2023/01/24 09:07:58;;;;;;;28.00;16.17;;;;;;;1.23;100.00;103840.44;5073351;28;20045;-49
2023/01/24 09:10:26;;;;;;;29.35;16.95;;;;;;;1.21;100.00;103845.59;5070580;28;20048;-50
2023/01/24 09:12:56;;;;;;;26.83;16.10;;;;;;;1.22;100.00;103849.94;5073607;28;20062;-48
2023/01/24 09:15:24;;;;;;;26.23;16.35;;;;;;;1.18;100.00;103848.13;5074578;28;20045;-51
2023/01/24 09:17:53;;;;;;;29.02;16.27;;;;;;;1.16;100.00;103847.25;5074736;28;20075;-52
2023/01/24 09:20:21;;;;;;;28.58;16.08;;;;;;;1.20;100.00;103854.25;5074575;28;20538;-51
2023/01/24 09:22:49;;;;;;;25.10;16.70;;;;;;;1.24;100.00;103849.97;5074063;28;20052;-52
2023/01/24 09:25:17;;;;;;;27.00;16.35;;;;;;;1.24;100.00;103849.97;5073663;28;20044;-50
2023/01/24 09:27:45;;;;;;;28.42;16.75;;;;;;;1.27;100.00;103850.03;5074102;28;20862;-50
2023/01/24 09:30:15;;;;;;;27.23;16.77;;;;;;;1.22;100.00;103851.69;5072906;28;20106;-51
2023/01/24 09:32:44;;;;;;;26.13;16.38;;;;;;;1.30;100.00;103850.13;5072160;28;20098;-51
2023/01/24 09:35:13;;;;;;;26.83;15.60;;;;;;;1.22;100.00;103852.53;5068682;28;20055;-52
2023/01/24 09:37:42;;;;;;;27.40;15.35;;;;;;;1.25;100.00;103857.78;5072955;28;20677;-50
2023/01/24 09:40:20;;;;;;;27.20;16.27;;;;;;;1.23;100.00;103858.59;5073929;28;20692;-52
2023/01/24 09:42:58;;;;;;;25.75;15.15;;;;;;;1.24;100.00;103857.75;5073999;28;20045;-50
2023/01/24 09:45:31;;;;;;;24.02;15.65;;;;;;;1.27;100.00;103858.72;5072415;28;20052;-52
2023/01/24 09:48:03;;;;;;;27.08;17.30;;;;;;;1.23;100.00;103853.41;5069798;28;20149;-51
2023/01/24 09:50:46;;;;;;;23.97;15.43;;;;;;;1.28;100.00;103860.47;5073527;28;20048;-52
2023/01/24 09:53:17;;;;;;;;;;;;;;;1.29;100.00;103864.78;5073073;28;20449;-54
2023/01/24 09:55:47;;;;;;;26.92;16.55;;;;;;;1.21;100.00;103863.75;5069159;28;19920;-48
2023/01/24 09:58:28;;;;;;;26.55;16.73;;;;;;;1.25;100.00;103868.16;5069713;28;20403;-49
2023/01/24 10:01:00;;;;;;;25.88;15.75;;;;;;;1.31;100.00;103870.00;5073428;28;20048;-48
2023/01/24 10:03:29;;;;;;;26.77;15.30;;;;;;;1.25;100.00;103872.47;5073802;28;20503;-48
2023/01/24 10:06:01;;;;;;;26.83;16.55;;;;;;;1.28;100.00;103875.13;5073958;28;20045;-47
2023/01/24 10:08:35;;;;;;;;;;;;;;;1.22;100.00;103868.09;5074239;28;20048;-48
2023/01/24 10:11:19;;;;;;;27.70;16.67;;;;;;;1.25;100.00;103867.28;5070700;28;19961;-49
2023/01/24 10:14:35;;;;;;;24.85;15.85;;;;;;;1.30;100.00;103876.06;5069891;28;20060;-49
2023/01/24 10:17:32;;;;;;;27.98;16.65;;;;;;;1.29;100.00;103874.31;5028785;28;20556;-51
2023/01/24 10:20:18;;;;;;;25.33;15.85;;;;;;;1.34;100.00;103872.69;5067775;28;20052;-50
2023/01/24 10:23:01;;;;;;;25.25;15.60;;;;;;;1.42;100.00;103865.06;5072774;28;20048;-48
2023/01/24 10:25:34;;;;;;;27.08;15.93;;;;;;;1.50;100.00;103859.22;5073308;28;20052;-50
2023/01/24 10:28:03;;;;;;;26.25;17.10;;;;;;;1.39;100.00;103865.00;5069922;28;20071;-50
2023/01/24 10:30:41;;;;;;;23.80;15.70;;;;;;;1.45;100.00;103859.97;5069313;28;20080;-53
2023/01/24 10:33:17;;;;;;;25.33;15.02;;;;;;;1.50;100.00;103860.91;5073066;28;20101;-49
2023/01/24 10:35:56;;;;;;;22.67;15.10;;;;;;;1.45;100.00;103866.00;5072902;28;20533;-49
2023/01/24 10:38:24;;;;;;;23.80;14.93;;;;;;;1.41;100.00;103869.38;5073000;28;20521;-48
2023/01/24 10:40:54;;;;;;;25.23;15.10;;;;;;;1.40;100.00;103854.66;5072947;28;20041;-50
2023/01/24 10:43:26;;;;;;;22.98;15.45;;;;;;;1.41;100.00;103860.75;5071358;28;20534;-49
2023/01/24 10:46:10;;;;;;;22.20;14.80;;;;;;;1.38;100.00;103864.13;5072065;28;20127;-50
2023/01/24 10:48:46;;;;;;;23.23;14.85;;;;;;;1.40;100.00;103867.63;5072567;28;20068;-50
2023/01/24 10:51:16;;;;;;;24.00;14.20;;;;;;;1.42;100.00;103860.75;5068894;28;20131;-51
2023/01/24 10:53:45;;;;;;;24.42;15.57;;;;;;;1.35;100.00;103862.34;5068591;28;20048;-49
2023/01/24 10:56:14;;;;;;;22.20;14.50;;;;;;;1.41;100.00;103856.41;5072568;28;20131;-53
2023/01/24 10:58:54;;;;;;;22.40;14.05;;;;;;;1.43;100.00;103848.66;5072601;28;20040;-51
2023/01/24 11:01:24;;;;;;;21.48;14.48;;;;;;;1.48;100.00;103845.31;5072308;28;20044;-52
2023/01/24 11:03:54;;;;;;;23.38;14.43;;;;;;;1.39;100.00;103860.72;5072377;28;20049;-49
2023/01/24 11:06:32;;;;;;;22.63;14.80;;;;;;;1.48;100.00;103847.91;5072291;28;20495;-50
2023/01/24 11:09:10;;;;;;;20.52;13.55;;;;;;;1.55;100.00;103845.47;5072830;28;20114;-51
2023/01/24 11:11:43;;;;;;;21.63;13.88;;;;;;;1.53;100.00;103842.84;5072365;28;20056;-53
2023/01/24 11:14:15;;;;;;;22.60;14.02;;;;;;;1.48;100.00;103832.34;5072424;28;20056;-53
2023/01/24 11:16:45;;;;;;;21.70;14.23;;;;;;;1.59;100.00;103832.56;5071716;28;20051;-48
2023/01/24 11:19:27;;;;;;;22.55;14.20;;;;;;;1.63;100.00;103836.13;5066979;28;20049;-52
2023/01/24 11:21:58;;;;;;;19.42;12.48;;;;;;;1.64;100.00;103830.09;5070996;28;20082;-49
2023/01/24 11:24:27;;;;;;;20.50;12.73;;;;;;;1.68;100.00;103830.16;5071826;28;20521;-52
2023/01/24 11:27:03;;;;;;;21.52;13.70;;;;;;;1.64;100.00;103824.91;5071637;28;20040;-48
2023/01/24 11:29:33;;;;;;;21.63;12.85;;;;;;;1.63;100.00;103824.00;5072075;28;20059;-49
2023/01/24 11:32:19;;;;;;;20.48;13.27;;;;;;;1.73;100.00;103825.06;5069873;28;20117;-50
2023/01/24 11:34:58;;;;;;;19.50;12.05;;;;;;;1.73;100.00;103829.38;5068522;28;20560;-51
2023/01/24 11:37:46;;;;;;;19.48;12.88;;;;;;;1.65;100.00;103816.25;5072063;28;20414;-51
2023/01/24 11:40:34;;;;;;;19.92;12.80;;;;;;;1.68;100.00;103814.59;5071923;28;20053;-48
2023/01/24 11:43:20;;;;;;;20.10;12.23;;;;;;;1.72;100.00;103815.53;5072232;28;20032;-48
2023/01/24 11:46:14;;;;;;;21.05;12.60;;;;;;;1.76;100.00;103811.25;5072193;28;20063;-50
2023/01/24 11:48:49;;;;;;;19.83;12.00;;;;;;;1.80;100.00;103806.19;5052753;28;20049;-52
2023/01/24 11:51:30;;;;;;;18.92;11.30;;;;;;;1.79;100.00;103799.22;5072292;28;20049;-52
2023/01/24 11:54:27;;;;;;;17.52;10.85;;;;;;;1.82;100.00;103801.88;5071909;28;20044;-50
2023/01/24 11:57:02;;;;;;;18.27;11.65;;;;;;;1.90;100.00;103796.84;5071994;28;20090;-51
2023/01/24 11:59:55;;;;;;;17.13;11.23;;;;;;;1.78;100.00;103800.06;5076088;28;20045;-48
2023/01/24 12:02:34;;;;;;;19.05;11.43;;;;;;;1.76;100.00;103790.50;5076097;28;20041;-51